PWSweather.com
Personal Weather Stations
Station Observations
KAZPHOEN90
RayThunderhill, Phoenix, AZ

RayThunderhillPhoenix, AZ

Lat: 33.312, Lon: -112.029

Elevation: 1260

Station Type: Davis Vantage VUE

High Low Average
Temperature 102.2°F39.0°C 75.9°F24.4°C 89.6°F32.0°C
Dew Point 61.0°F16.1°C 50.0°F10.0°C 56.4°F13.6°C
Winds 8.5 mph 13.7 kmh Calm Calm 1.0 mph SW1.6 kmh SW
Wind Gusts 13.0 mph20.9 kmh -- 2.0 mph3.2 kmh
Humidity 58% 18% 35%
Pressure 29.89 in1012.2 mb 29.73 in1006.8 mb -
Precipitation 0.00 in0.0 mm - -
Hour Temp Dew Point Humidity Winds Wind Gusts Pressure Precip Precip Rate Daily Precip Total
12:00 AM 85.1°F29.5°C 58.0°F14.4°C 40% Calm Calm -- 29.84 in1010.5 mb - 0.00 in0.0 mm 0.00 in0.0 mm
12:15 AM 85.1°F29.5°C 58.8°F14.9°C 41% Calm Calm 1.0 mph1.6 kmh 29.84 in1010.5 mb - 0.00 in0.0 mm 0.00 in0.0 mm
12:30 AM 84.2°F29.0°C 58.6°F14.8°C 42% Calm Calm -- 29.84 in1010.5 mb - 0.00 in0.0 mm 0.00 in0.0 mm
12:45 AM 83.3°F28.5°C 59.1°F15.1°C 44% Calm Calm -- 29.83 in1010.2 mb - 0.00 in0.0 mm 0.00 in0.0 mm
01:00 AM 82.3°F27.9°C 58.8°F14.9°C 45% Calm Calm -- 29.82 in1009.8 mb - 0.00 in0.0 mm 0.00 in0.0 mm
01:15 AM 82.7°F28.2°C 59.8°F15.4°C 46% 0.1 mph WSW0.2 kmh WSW 1.0 mph1.6 kmh 29.81 in1009.5 mb - 0.00 in0.0 mm 0.00 in0.0 mm
01:30 AM 83.5°F28.6°C 57.3°F14.1°C 41% 0.9 mph SW1.4 kmh SW 1.0 mph1.6 kmh 29.81 in1009.5 mb - 0.00 in0.0 mm 0.00 in0.0 mm
01:45 AM 83.4°F28.6°C 57.9°F14.4°C 42% Calm Calm -- 29.82 in1009.8 mb - 0.00 in0.0 mm 0.00 in0.0 mm
02:00 AM 82.5°F28.1°C 58.4°F14.7°C 44% Calm Calm -- 29.83 in1010.2 mb - 0.00 in0.0 mm 0.00 in0.0 mm
02:15 AM 81.9°F27.7°C 59.7°F15.4°C 47% 0.2 mph SE0.3 kmh SE 1.0 mph1.6 kmh 29.83 in1010.2 mb - 0.00 in0.0 mm 0.00 in0.0 mm
02:30 AM 81.6°F27.6°C 60.0°F15.6°C 48% Calm Calm 1.0 mph1.6 kmh 29.83 in1010.2 mb - 0.00 in0.0 mm 0.00 in0.0 mm
02:45 AM 82.2°F27.9°C 60.6°F15.9°C 48% Calm Calm 1.0 mph1.6 kmh 29.83 in1010.2 mb - 0.00 in0.0 mm 0.00 in0.0 mm
03:00 AM 81.9°F27.7°C 60.3°F15.7°C 48% Calm Calm -- 29.84 in1010.5 mb - 0.00 in0.0 mm 0.00 in0.0 mm
03:15 AM 81.1°F27.3°C 60.7°F15.9°C 50% Calm Calm -- 29.84 in1010.5 mb - 0.00 in0.0 mm 0.00 in0.0 mm
03:30 AM 80.1°F26.7°C 60.3°F15.7°C 51% Calm Calm -- 29.84 in1010.5 mb - 0.00 in0.0 mm 0.00 in0.0 mm
03:45 AM 79.9°F26.6°C 60.7°F15.9°C 52% Calm Calm -- 29.84 in1010.5 mb - 0.00 in0.0 mm 0.00 in0.0 mm
04:00 AM 79.2°F26.2°C 60.6°F15.9°C 53% Calm Calm -- 29.83 in1010.2 mb - 0.00 in0.0 mm 0.00 in0.0 mm
04:15 AM 77.8°F25.4°C 60.3°F15.7°C 55% Calm Calm -- 29.83 in1010.2 mb - 0.00 in0.0 mm 0.00 in0.0 mm
04:30 AM 77.2°F25.1°C 60.3°F15.7°C 56% Calm Calm -- 29.84 in1010.5 mb - 0.00 in0.0 mm 0.00 in0.0 mm
04:45 AM 76.8°F24.9°C 60.4°F15.8°C 57% Calm Calm -- 29.84 in1010.5 mb - 0.00 in0.0 mm 0.00 in0.0 mm
05:00 AM 77.3°F25.2°C 60.4°F15.8°C 56% Calm Calm -- 29.84 in1010.5 mb - 0.00 in0.0 mm 0.00 in0.0 mm
05:15 AM 76.4°F24.7°C 60.1°F15.6°C 57% Calm Calm -- 29.85 in1010.8 mb - 0.00 in0.0 mm 0.00 in0.0 mm
05:30 AM 76.7°F24.8°C 60.8°F16.0°C 58% Calm Calm -- 29.85 in1010.8 mb - 0.00 in0.0 mm 0.00 in0.0 mm
05:45 AM 76.6°F24.8°C 60.7°F15.9°C 58% Calm Calm -- 29.86 in1011.2 mb - 0.00 in0.0 mm 0.00 in0.0 mm
06:00 AM 76.2°F24.6°C 60.3°F15.7°C 58% Calm Calm -- 29.86 in1011.2 mb - 0.00 in0.0 mm 0.00 in0.0 mm
06:15 AM 75.9°F24.4°C 60.1°F15.6°C 58% Calm Calm -- 29.87 in1011.5 mb - 0.00 in0.0 mm 0.00 in0.0 mm
06:30 AM 76.3°F24.6°C 59.9°F15.5°C 57% Calm Calm -- 29.87 in1011.5 mb - 0.00 in0.0 mm 0.00 in0.0 mm
06:45 AM 77.9°F25.5°C 59.9°F15.5°C 54% 0.7 mph N1.1 kmh N 3.0 mph4.8 kmh 29.87 in1011.5 mb - 0.00 in0.0 mm 0.00 in0.0 mm
07:00 AM 79.7°F26.5°C 60.5°F15.8°C 52% 1.2 mph N1.9 kmh N 4.0 mph6.4 kmh 29.87 in1011.5 mb - 0.00 in0.0 mm 0.00 in0.0 mm
07:15 AM 81.1°F27.3°C 60.1°F15.6°C 49% 1.0 mph NW1.6 kmh NW 3.0 mph4.8 kmh 29.88 in1011.9 mb - 0.00 in0.0 mm 0.00 in0.0 mm
07:30 AM 82.1°F27.8°C 60.5°F15.8°C 48% 2.1 mph N3.4 kmh N 3.0 mph4.8 kmh 29.88 in1011.9 mb - 0.00 in0.0 mm 0.00 in0.0 mm
07:45 AM 83.2°F28.4°C 60.9°F16.1°C 47% Calm Calm 1.0 mph1.6 kmh 29.88 in1011.9 mb - 0.00 in0.0 mm 0.00 in0.0 mm
08:00 AM 84.7°F29.3°C 61.0°F16.1°C 45% 0.1 mph NE0.2 kmh NE -- 29.88 in1011.9 mb - 0.00 in0.0 mm 0.00 in0.0 mm
08:15 AM 85.5°F29.7°C 59.8°F15.4°C 42% 0.1 mph NNE0.2 kmh NNE 2.0 mph3.2 kmh 29.88 in1011.9 mb - 0.00 in0.0 mm 0.00 in0.0 mm
08:30 AM 87.6°F30.9°C 58.9°F14.9°C 38% 0.1 mph NW0.2 kmh NW 1.0 mph1.6 kmh 29.89 in1012.2 mb - 0.00 in0.0 mm 0.00 in0.0 mm
08:45 AM 88.8°F31.6°C 59.2°F15.1°C 37% 0.1 mph NW0.2 kmh NW -- 29.89 in1012.2 mb - 0.00 in0.0 mm 0.00 in0.0 mm
09:00 AM 88.8°F31.6°C 59.2°F15.1°C 37% 0.1 mph NNE0.2 kmh NNE -- 29.89 in1012.2 mb - 0.00 in0.0 mm 0.00 in0.0 mm
09:15 AM 89.7°F32.1°C 59.9°F15.5°C 37% 1.8 mph SE2.9 kmh SE 4.0 mph6.4 kmh 29.88 in1011.9 mb - 0.00 in0.0 mm 0.00 in0.0 mm
09:30 AM 90.4°F32.4°C 59.0°F15.0°C 35% 1.7 mph ESE2.7 kmh ESE 3.0 mph4.8 kmh 29.89 in1012.2 mb - 0.00 in0.0 mm 0.00 in0.0 mm
09:45 AM 91.0°F32.8°C 58.8°F14.9°C 34% 1.0 mph SE1.6 kmh SE 2.0 mph3.2 kmh 29.88 in1011.9 mb - 0.00 in0.0 mm 0.00 in0.0 mm
10:00 AM 91.6°F33.1°C 58.4°F14.7°C 33% 0.6 mph SE1.0 kmh SE 1.0 mph1.6 kmh 29.88 in1011.9 mb - 0.00 in0.0 mm 0.00 in0.0 mm
10:15 AM 92.8°F33.8°C 57.7°F14.3°C 31% 1.5 mph SE2.4 kmh SE 2.0 mph3.2 kmh 29.89 in1012.2 mb - 0.00 in0.0 mm 0.00 in0.0 mm
10:30 AM 93.2°F34.0°C 58.1°F14.5°C 31% 0.9 mph ESE1.4 kmh ESE 2.0 mph3.2 kmh 29.88 in1011.9 mb - 0.00 in0.0 mm 0.00 in0.0 mm
10:45 AM 94.5°F34.7°C 57.3°F14.1°C 29% 1.8 mph SE2.9 kmh SE 2.0 mph3.2 kmh 29.87 in1011.5 mb - 0.00 in0.0 mm 0.00 in0.0 mm
11:00 AM 95.9°F35.5°C 57.5°F14.2°C 28% 1.1 mph S1.8 kmh S 5.0 mph8.0 kmh 29.87 in1011.5 mb - 0.00 in0.0 mm 0.00 in0.0 mm
11:15 AM 96.7°F35.9°C 57.2°F14.0°C 27% 0.5 mph SW0.8 kmh SW 2.0 mph3.2 kmh 29.86 in1011.2 mb - 0.00 in0.0 mm 0.00 in0.0 mm
11:30 AM 96.3°F35.7°C 56.9°F13.8°C 27% 0.3 mph N0.5 kmh N 2.0 mph3.2 kmh 29.86 in1011.2 mb - 0.00 in0.0 mm 0.00 in0.0 mm
11:45 AM 97.5°F36.4°C 56.9°F13.8°C 26% 0.6 mph SW1.0 kmh SW 3.0 mph4.8 kmh 29.86 in1011.2 mb - 0.00 in0.0 mm 0.00 in0.0 mm
12:00 PM 97.2°F36.2°C 56.6°F13.7°C 26% 1.0 mph S1.6 kmh S 2.0 mph3.2 kmh 29.84 in1010.5 mb - 0.00 in0.0 mm 0.00 in0.0 mm
12:15 PM 97.9°F36.6°C 58.3°F14.6°C 27% 0.1 mph NW0.2 kmh NW 1.0 mph1.6 kmh 29.83 in1010.2 mb - 0.00 in0.0 mm 0.00 in0.0 mm
12:30 PM 99.0°F37.2°C 58.1°F14.5°C 26% 0.4 mph SSW0.6 kmh SSW 2.0 mph3.2 kmh 29.84 in1010.5 mb - 0.00 in0.0 mm 0.00 in0.0 mm
12:45 PM 99.7°F37.6°C 57.6°F14.2°C 25% 1.3 mph S2.1 kmh S 3.0 mph4.8 kmh 29.83 in1010.2 mb - 0.00 in0.0 mm 0.00 in0.0 mm
01:00 PM 99.5°F37.5°C 57.4°F14.1°C 25% 0.1 mph ENE0.2 kmh ENE 1.0 mph1.6 kmh 29.82 in1009.8 mb - 0.00 in0.0 mm 0.00 in0.0 mm
01:15 PM 100.4°F38.0°C 57.1°F13.9°C 24% 2.7 mph S4.3 kmh S 5.0 mph8.0 kmh 29.82 in1009.8 mb - 0.00 in0.0 mm 0.00 in0.0 mm
01:30 PM 100.5°F38.1°C 56.0°F13.3°C 23% 3.3 mph E5.3 kmh E 6.0 mph9.7 kmh 29.81 in1009.5 mb - 0.00 in0.0 mm 0.00 in0.0 mm
01:45 PM 101.2°F38.4°C 55.3°F12.9°C 22% Calm Calm -- 29.80 in1009.1 mb - 0.00 in0.0 mm 0.00 in0.0 mm
02:00 PM 101.2°F38.4°C 54.0°F12.2°C 21% 0.8 mph NW1.3 kmh NW 6.0 mph9.7 kmh 29.78 in1008.5 mb - 0.00 in0.0 mm 0.00 in0.0 mm
02:15 PM 101.0°F38.3°C 53.9°F12.2°C 21% 1.6 mph NNW2.6 kmh NNW 4.0 mph6.4 kmh 29.79 in1008.8 mb - 0.00 in0.0 mm 0.00 in0.0 mm
02:30 PM 101.7°F38.7°C 53.1°F11.7°C 20% 1.2 mph WSW1.9 kmh WSW 3.0 mph4.8 kmh 29.78 in1008.5 mb - 0.00 in0.0 mm 0.00 in0.0 mm
02:45 PM 101.9°F38.8°C 53.3°F11.8°C 20% 1.8 mph WSW2.9 kmh WSW 3.0 mph4.8 kmh 29.77 in1008.1 mb - 0.00 in0.0 mm 0.00 in0.0 mm
03:00 PM 101.3°F38.5°C 52.8°F11.6°C 20% 0.3 mph NNW0.5 kmh NNW 1.0 mph1.6 kmh 29.76 in1007.8 mb - 0.00 in0.0 mm 0.00 in0.0 mm
03:15 PM 101.9°F38.8°C 53.3°F11.8°C 20% 0.6 mph WNW1.0 kmh WNW 2.0 mph3.2 kmh 29.75 in1007.5 mb - 0.00 in0.0 mm 0.00 in0.0 mm
03:30 PM 102.2°F39.0°C 54.9°F12.7°C 21% 0.2 mph N0.3 kmh N 1.0 mph1.6 kmh 29.74 in1007.1 mb - 0.00 in0.0 mm 0.00 in0.0 mm
03:45 PM 101.8°F38.8°C 53.2°F11.8°C 20% 1.1 mph WSW1.8 kmh WSW 1.0 mph1.6 kmh 29.74 in1007.1 mb - 0.00 in0.0 mm 0.00 in0.0 mm
04:00 PM 102.1°F38.9°C 53.4°F11.9°C 20% 1.5 mph WNW2.4 kmh WNW 2.0 mph3.2 kmh 29.74 in1007.1 mb - 0.00 in0.0 mm 0.00 in0.0 mm
04:15 PM 101.8°F38.8°C 53.2°F11.8°C 20% 4.0 mph NNW6.4 kmh NNW 6.0 mph9.7 kmh 29.74 in1007.1 mb - 0.00 in0.0 mm 0.00 in0.0 mm
04:30 PM 101.6°F38.7°C 51.6°F10.9°C 19% 2.0 mph NW3.2 kmh NW 3.0 mph4.8 kmh 29.73 in1006.8 mb - 0.00 in0.0 mm 0.00 in0.0 mm
04:45 PM 101.8°F38.8°C 51.8°F11.0°C 19% 0.9 mph W1.4 kmh W 2.0 mph3.2 kmh 29.73 in1006.8 mb - 0.00 in0.0 mm 0.00 in0.0 mm
05:00 PM 101.3°F38.5°C 50.0°F10.0°C 18% 3.9 mph NW6.3 kmh NW 5.0 mph8.0 kmh 29.73 in1006.8 mb - 0.00 in0.0 mm 0.00 in0.0 mm
05:15 PM 101.5°F38.6°C 50.1°F10.1°C 18% 2.5 mph NW4.0 kmh NW 3.0 mph4.8 kmh 29.73 in1006.8 mb - 0.00 in0.0 mm 0.00 in0.0 mm
05:30 PM 101.4°F38.6°C 51.5°F10.8°C 19% 1.5 mph NNW2.4 kmh NNW 3.0 mph4.8 kmh 29.74 in1007.1 mb - 0.00 in0.0 mm 0.00 in0.0 mm
05:45 PM 101.1°F38.4°C 52.7°F11.5°C 20% Calm Calm 1.0 mph1.6 kmh 29.74 in1007.1 mb - 0.00 in0.0 mm 0.00 in0.0 mm
06:00 PM 101.4°F38.6°C 51.5°F10.8°C 19% 0.6 mph NNE1.0 kmh NNE 1.0 mph1.6 kmh 29.73 in1006.8 mb - 0.00 in0.0 mm 0.00 in0.0 mm
06:15 PM 98.7°F37.1°C 52.0°F11.1°C 21% 8.5 mph NW13.7 kmh NW 13.0 mph20.9 kmh 29.76 in1007.8 mb - 0.00 in0.0 mm 0.00 in0.0 mm
06:30 PM 93.6°F34.2°C 51.4°F10.8°C 24% 4.4 mph NNW7.1 kmh NNW 11.0 mph17.7 kmh 29.78 in1008.5 mb - 0.00 in0.0 mm 0.00 in0.0 mm
06:45 PM 91.8°F33.2°C 51.0°F10.6°C 25% 5.0 mph NNE8.0 kmh NNE 8.0 mph12.9 kmh 29.77 in1008.1 mb - 0.00 in0.0 mm 0.00 in0.0 mm
07:00 PM 90.7°F32.6°C 54.1°F12.3°C 29% 2.8 mph NNW4.5 kmh NNW 8.0 mph12.9 kmh 29.77 in1008.1 mb - 0.00 in0.0 mm 0.00 in0.0 mm
07:15 PM 90.1°F32.3°C 51.6°F10.9°C 27% 4.8 mph NNW7.7 kmh NNW 8.0 mph12.9 kmh 29.76 in1007.8 mb - 0.00 in0.0 mm 0.00 in0.0 mm
07:30 PM 89.5°F31.9°C 56.6°F13.7°C 33% 2.5 mph NW4.0 kmh NW 4.0 mph6.4 kmh 29.76 in1007.8 mb - 0.00 in0.0 mm 0.00 in0.0 mm
07:45 PM 86.8°F30.4°C 55.9°F13.3°C 35% 1.0 mph NW1.6 kmh NW 2.0 mph3.2 kmh 29.76 in1007.8 mb - 0.00 in0.0 mm 0.00 in0.0 mm
08:00 PM 87.2°F30.7°C 55.4°F13.0°C 34% 1.9 mph NNW3.1 kmh NNW 5.0 mph8.0 kmh 29.75 in1007.5 mb - 0.00 in0.0 mm 0.00 in0.0 mm
08:15 PM 89.6°F32.0°C 52.2°F11.2°C 28% 5.3 mph NW8.5 kmh NW 7.0 mph11.3 kmh 29.76 in1007.8 mb - 0.00 in0.0 mm 0.00 in0.0 mm
08:30 PM 89.7°F32.1°C 50.2°F10.1°C 26% 5.6 mph NW9.0 kmh NW 9.0 mph14.5 kmh 29.76 in1007.8 mb - 0.00 in0.0 mm 0.00 in0.0 mm
08:45 PM 89.9°F32.2°C 51.4°F10.8°C 27% 2.6 mph NW4.2 kmh NW 6.0 mph9.7 kmh 29.75 in1007.5 mb - 0.00 in0.0 mm 0.00 in0.0 mm
09:00 PM 90.7°F32.6°C 51.1°F10.6°C 26% 1.7 mph NW2.7 kmh NW 2.0 mph3.2 kmh 29.75 in1007.5 mb - 0.00 in0.0 mm 0.00 in0.0 mm
09:15 PM 89.7°F32.1°C 52.3°F11.3°C 28% Calm Calm -- 29.75 in1007.5 mb - 0.00 in0.0 mm 0.00 in0.0 mm
09:30 PM 89.1°F31.7°C 51.7°F10.9°C 28% 1.3 mph WSW2.1 kmh WSW 3.0 mph4.8 kmh 29.76 in1007.8 mb - 0.00 in0.0 mm 0.00 in0.0 mm
09:45 PM 88.3°F31.3°C 52.0°F11.1°C 29% Calm Calm -- 29.76 in1007.8 mb - 0.00 in0.0 mm 0.00 in0.0 mm
10:00 PM 87.7°F30.9°C 51.5°F10.8°C 29% 0.7 mph E1.1 kmh E 3.0 mph4.8 kmh 29.78 in1008.5 mb - 0.00 in0.0 mm 0.00 in0.0 mm
10:15 PM 87.4°F30.8°C 52.2°F11.2°C 30% 1.1 mph N1.8 kmh N 5.0 mph8.0 kmh 29.78 in1008.5 mb - 0.00 in0.0 mm 0.00 in0.0 mm
10:30 PM 85.9°F29.9°C 54.3°F12.4°C 34% 1.2 mph ESE1.9 kmh ESE 2.0 mph3.2 kmh 29.79 in1008.8 mb - 0.00 in0.0 mm 0.00 in0.0 mm
10:45 PM 85.1°F29.5°C 53.6°F12.0°C 34% 1.6 mph NNW2.6 kmh NNW 5.0 mph8.0 kmh 29.79 in1008.8 mb - 0.00 in0.0 mm 0.00 in0.0 mm
11:00 PM 84.9°F29.4°C 53.4°F11.9°C 34% 1.7 mph NW2.7 kmh NW 5.0 mph8.0 kmh 29.79 in1008.8 mb - 0.00 in0.0 mm 0.00 in0.0 mm
11:15 PM 84.5°F29.2°C 53.9°F12.2°C 35% 1.2 mph NNW1.9 kmh NNW 4.0 mph6.4 kmh 29.78 in1008.5 mb - 0.00 in0.0 mm 0.00 in0.0 mm
11:30 PM 83.8°F28.8°C 54.0°F12.2°C 36% 0.4 mph NW0.6 kmh NW 2.0 mph3.2 kmh 29.78 in1008.5 mb - 0.00 in0.0 mm 0.00 in0.0 mm
11:45 PM 83.6°F28.7°C 53.1°F11.7°C 35% 0.3 mph N0.5 kmh N 2.0 mph3.2 kmh 29.78 in1008.5 mb - 0.00 in0.0 mm 0.00 in0.0 mm